sensor_id;sensor_type;location;lat;lon;timestamp;temperature;humidity
65472;DHT22;52068;50.710;14.492;2022-11-13T00:01:07;21.73;47.06
65472;DHT22;52068;50.710;14.492;2022-11-13T00:03:32;21.73;47.28
65472;DHT22;52068;50.710;14.492;2022-11-13T00:05:58;21.71;47.04
65472;DHT22;52068;50.710;14.492;2022-11-13T00:08:24;21.75;46.99
65472;DHT22;52068;50.710;14.492;2022-11-13T00:10:49;21.75;46.97
65472;DHT22;52068;50.710;14.492;2022-11-13T00:13:14;21.74;46.88
65472;DHT22;52068;50.710;14.492;2022-11-13T00:15:39;21.74;46.83
65472;DHT22;52068;50.710;14.492;2022-11-13T00:18:05;21.71;46.90
65472;DHT22;52068;50.710;14.492;2022-11-13T00:20:30;21.71;47.12
65472;DHT22;52068;50.710;14.492;2022-11-13T00:22:55;21.73;47.05
65472;DHT22;52068;50.710;14.492;2022-11-13T00:25:20;21.74;47.16
65472;DHT22;52068;50.710;14.492;2022-11-13T00:27:46;21.68;46.97
65472;DHT22;52068;50.710;14.492;2022-11-13T00:30:11;21.70;46.93
65472;DHT22;52068;50.710;14.492;2022-11-13T00:32:36;21.70;46.95
65472;DHT22;52068;50.710;14.492;2022-11-13T00:35:02;21.68;46.98
65472;DHT22;52068;50.710;14.492;2022-11-13T00:37:27;21.70;47.00
65472;DHT22;52068;50.710;14.492;2022-11-13T00:39:52;21.67;46.97
65472;DHT22;52068;50.710;14.492;2022-11-13T00:42:18;21.67;46.96
65472;DHT22;52068;50.710;14.492;2022-11-13T00:44:43;21.64;47.15
65472;DHT22;52068;50.710;14.492;2022-11-13T00:47:08;21.64;47.04
65472;DHT22;52068;50.710;14.492;2022-11-13T00:49:34;21.64;46.96
65472;DHT22;52068;50.710;14.492;2022-11-13T00:51:59;21.60;47.03
65472;DHT22;52068;50.710;14.492;2022-11-13T00:54:24;21.61;47.11
65472;DHT22;52068;50.710;14.492;2022-11-13T00:56:49;21.57;47.02
65472;DHT22;52068;50.710;14.492;2022-11-13T00:59:15;21.58;46.94
65472;DHT22;52068;50.710;14.492;2022-11-13T01:01:40;21.57;46.95
65472;DHT22;52068;50.710;14.492;2022-11-13T01:04:05;21.57;46.94
65472;DHT22;52068;50.710;14.492;2022-11-13T01:06:30;21.53;46.94
65472;DHT22;52068;50.710;14.492;2022-11-13T01:08:56;21.57;46.99
65472;DHT22;52068;50.710;14.492;2022-11-13T01:11:24;21.54;46.78
65472;DHT22;52068;50.710;14.492;2022-11-13T01:13:50;21.53;46.92
65472;DHT22;52068;50.710;14.492;2022-11-13T01:16:16;21.49;46.85
65472;DHT22;52068;50.710;14.492;2022-11-13T01:18:42;21.47;46.92
65472;DHT22;52068;50.710;14.492;2022-11-13T01:21:11;21.49;46.88
65472;DHT22;52068;50.710;14.492;2022-11-13T01:23:37;21.50;46.93
65472;DHT22;52068;50.710;14.492;2022-11-13T01:26:06;21.49;47.07
65472;DHT22;52068;50.710;14.492;2022-11-13T01:28:32;21.49;46.93
65472;DHT22;52068;50.710;14.492;2022-11-13T01:30:57;21.47;47.26
65472;DHT22;52068;50.710;14.492;2022-11-13T01:33:23;21.44;47.09
65472;DHT22;52068;50.710;14.492;2022-11-13T01:35:48;21.46;47.12
65472;DHT22;52068;50.710;14.492;2022-11-13T01:38:13;21.44;47.13
65472;DHT22;52068;50.710;14.492;2022-11-13T01:40:45;21.44;47.15
65472;DHT22;52068;50.710;14.492;2022-11-13T01:43:13;21.43;47.15
65472;DHT22;52068;50.710;14.492;2022-11-13T01:46:18;21.42;47.11
65472;DHT22;52068;50.710;14.492;2022-11-13T01:48:38;21.42;47.12
65472;DHT22;52068;50.710;14.492;2022-11-13T01:51:10;21.40;47.20
65472;DHT22;52068;50.710;14.492;2022-11-13T01:53:36;21.40;47.30
65472;DHT22;52068;50.710;14.492;2022-11-13T01:56:02;21.39;47.10
65472;DHT22;52068;50.710;14.492;2022-11-13T01:58:27;21.37;47.10
65472;DHT22;52068;50.710;14.492;2022-11-13T02:00:53;21.39;47.15
65472;DHT22;52068;50.710;14.492;2022-11-13T02:03:18;21.36;47.23
65472;DHT22;52068;50.710;14.492;2022-11-13T02:05:43;21.36;47.18
65472;DHT22;52068;50.710;14.492;2022-11-13T02:08:08;21.34;47.12
65472;DHT22;52068;50.710;14.492;2022-11-13T02:10:34;21.33;47.22
65472;DHT22;52068;50.710;14.492;2022-11-13T02:12:59;21.34;47.28
65472;DHT22;52068;50.710;14.492;2022-11-13T02:15:24;21.32;47.24
65472;DHT22;52068;50.710;14.492;2022-11-13T02:17:51;21.33;47.36
65472;DHT22;52068;50.710;14.492;2022-11-13T02:20:42;21.32;47.21
65472;DHT22;52068;50.710;14.492;2022-11-13T02:23:16;21.30;47.21
65472;DHT22;52068;50.710;14.492;2022-11-13T02:25:43;21.29;47.27
65472;DHT22;52068;50.710;14.492;2022-11-13T02:28:11;21.29;47.28
65472;DHT22;52068;50.710;14.492;2022-11-13T02:30:36;21.29;47.40
65472;DHT22;52068;50.710;14.492;2022-11-13T02:33:16;21.30;47.31
65472;DHT22;52068;50.710;14.492;2022-11-13T02:35:43;21.27;47.10
65472;DHT22;52068;50.710;14.492;2022-11-13T02:38:08;21.24;47.23
65472;DHT22;52068;50.710;14.492;2022-11-13T02:40:33;21.26;47.18
65472;DHT22;52068;50.710;14.492;2022-11-13T02:42:59;21.23;47.31
65472;DHT22;52068;50.710;14.492;2022-11-13T02:45:24;21.22;47.27
65472;DHT22;52068;50.710;14.492;2022-11-13T02:47:49;21.20;47.25
65472;DHT22;52068;50.710;14.492;2022-11-13T02:50:15;21.22;47.28
65472;DHT22;52068;50.710;14.492;2022-11-13T02:52:40;21.20;47.33
65472;DHT22;52068;50.710;14.492;2022-11-13T02:55:06;21.20;47.27
65472;DHT22;52068;50.710;14.492;2022-11-13T02:57:31;21.19;47.36
65472;DHT22;52068;50.710;14.492;2022-11-13T02:59:56;21.18;47.29
65472;DHT22;52068;50.710;14.492;2022-11-13T03:02:21;21.19;47.29
65472;DHT22;52068;50.710;14.492;2022-11-13T03:04:47;21.18;47.30
65472;DHT22;52068;50.710;14.492;2022-11-13T03:07:12;21.16;47.31
65472;DHT22;52068;50.710;14.492;2022-11-13T03:09:37;21.16;47.31
65472;DHT22;52068;50.710;14.492;2022-11-13T03:12:03;21.16;47.24
65472;DHT22;52068;50.710;14.492;2022-11-13T03:14:28;21.18;47.27
65472;DHT22;52068;50.710;14.492;2022-11-13T03:16:53;21.13;47.28
65472;DHT22;52068;50.710;14.492;2022-11-13T03:19:19;21.14;47.34
65472;DHT22;52068;50.710;14.492;2022-11-13T03:21:44;21.13;47.33
65472;DHT22;52068;50.710;14.492;2022-11-13T03:24:09;21.14;47.31
65472;DHT22;52068;50.710;14.492;2022-11-13T03:26:34;21.12;47.35
65472;DHT22;52068;50.710;14.492;2022-11-13T03:29:00;21.13;47.34
65472;DHT22;52068;50.710;14.492;2022-11-13T03:31:25;21.10;47.37
65472;DHT22;52068;50.710;14.492;2022-11-13T03:33:51;21.12;47.35
65472;DHT22;52068;50.710;14.492;2022-11-13T03:36:17;21.10;47.45
65472;DHT22;52068;50.710;14.492;2022-11-13T03:38:42;21.10;47.43
65472;DHT22;52068;50.710;14.492;2022-11-13T03:41:07;21.10;47.31
65472;DHT22;52068;50.710;14.492;2022-11-13T03:43:33;21.09;47.39
65472;DHT22;52068;50.710;14.492;2022-11-13T03:45:58;21.06;47.40
65472;DHT22;52068;50.710;14.492;2022-11-13T03:48:23;21.07;47.39
65472;DHT22;52068;50.710;14.492;2022-11-13T03:50:50;21.09;47.50
65472;DHT22;52068;50.710;14.492;2022-11-13T03:53:16;21.07;47.39
65472;DHT22;52068;50.710;14.492;2022-11-13T03:55:41;21.06;47.37
65472;DHT22;52068;50.710;14.492;2022-11-13T03:58:06;21.09;47.36
65472;DHT22;52068;50.710;14.492;2022-11-13T04:00:31;21.07;47.51
65472;DHT22;52068;50.710;14.492;2022-11-13T04:02:57;21.09;47.61
65472;DHT22;52068;50.710;14.492;2022-11-13T04:05:24;21.07;47.51
65472;DHT22;52068;50.710;14.492;2022-11-13T04:07:49;21.06;47.47
65472;DHT22;52068;50.710;14.492;2022-11-13T04:10:15;21.06;47.34
65472;DHT22;52068;50.710;14.492;2022-11-13T04:12:40;21.06;47.37
65472;DHT22;52068;50.710;14.492;2022-11-13T04:15:06;21.04;47.34
65472;DHT22;52068;50.710;14.492;2022-11-13T04:17:31;21.04;47.38
65472;DHT22;52068;50.710;14.492;2022-11-13T04:19:57;21.06;47.33
65472;DHT22;52068;50.710;14.492;2022-11-13T04:22:22;21.02;47.34
65472;DHT22;52068;50.710;14.492;2022-11-13T04:24:47;21.04;47.46
65472;DHT22;52068;50.710;14.492;2022-11-13T04:27:12;21.00;47.37
65472;DHT22;52068;50.710;14.492;2022-11-13T04:29:38;20.99;47.38
65472;DHT22;52068;50.710;14.492;2022-11-13T04:32:03;21.02;47.40
65472;DHT22;52068;50.710;14.492;2022-11-13T04:34:28;20.99;47.43
65472;DHT22;52068;50.710;14.492;2022-11-13T04:36:54;21.00;47.45
65472;DHT22;52068;50.710;14.492;2022-11-13T04:39:19;20.99;47.41
65472;DHT22;52068;50.710;14.492;2022-11-13T04:41:44;21.00;47.57
65472;DHT22;52068;50.710;14.492;2022-11-13T04:44:28;20.99;47.52
65472;DHT22;52068;50.710;14.492;2022-11-13T04:46:53;21.00;47.59
65472;DHT22;52068;50.710;14.492;2022-11-13T04:49:19;21.02;47.46
65472;DHT22;52068;50.710;14.492;2022-11-13T04:51:44;20.98;47.35
65472;DHT22;52068;50.710;14.492;2022-11-13T04:54:09;20.99;47.35
65472;DHT22;52068;50.710;14.492;2022-11-13T04:56:34;20.98;47.34
65472;DHT22;52068;50.710;14.492;2022-11-13T04:58:59;20.98;47.31
65472;DHT22;52068;50.710;14.492;2022-11-13T05:01:25;20.96;47.43
65472;DHT22;52068;50.710;14.492;2022-11-13T05:03:50;20.93;47.38
65472;DHT22;52068;50.710;14.492;2022-11-13T05:06:15;20.96;47.50
65472;DHT22;52068;50.710;14.492;2022-11-13T05:08:40;20.93;47.48
65472;DHT22;52068;50.710;14.492;2022-11-13T05:11:06;20.96;47.49
65472;DHT22;52068;50.710;14.492;2022-11-13T05:13:32;20.96;47.60
65472;DHT22;52068;50.710;14.492;2022-11-13T05:18:25;20.96;47.64
65472;DHT22;52068;50.710;14.492;2022-11-13T05:20:51;20.95;47.54
65472;DHT22;52068;50.710;14.492;2022-11-13T05:23:16;20.93;47.39
65472;DHT22;52068;50.710;14.492;2022-11-13T05:25:41;20.95;47.54
65472;DHT22;52068;50.710;14.492;2022-11-13T05:28:06;20.89;47.51
65472;DHT22;52068;50.710;14.492;2022-11-13T05:30:32;20.93;47.48
65472;DHT22;52068;50.710;14.492;2022-11-13T05:32:57;20.93;47.48
65472;DHT22;52068;50.710;14.492;2022-11-13T05:35:22;20.92;47.51
65472;DHT22;52068;50.710;14.492;2022-11-13T05:37:47;20.93;47.62
65472;DHT22;52068;50.710;14.492;2022-11-13T05:40:13;20.95;47.55
65472;DHT22;52068;50.710;14.492;2022-11-13T05:42:38;20.95;47.59
65472;DHT22;52068;50.710;14.492;2022-11-13T05:45:03;20.96;47.51
65472;DHT22;52068;50.710;14.492;2022-11-13T05:47:29;20.92;47.38
65472;DHT22;52068;50.710;14.492;2022-11-13T05:49:54;20.95;47.42
65472;DHT22;52068;50.710;14.492;2022-11-13T05:52:19;20.92;47.31
65472;DHT22;52068;50.710;14.492;2022-11-13T05:54:44;20.92;47.34
65472;DHT22;52068;50.710;14.492;2022-11-13T05:57:10;20.91;47.40
65472;DHT22;52068;50.710;14.492;2022-11-13T05:59:35;20.89;47.43
65472;DHT22;52068;50.710;14.492;2022-11-13T06:02:00;20.92;47.47
65472;DHT22;52068;50.710;14.492;2022-11-13T06:04:25;20.88;47.46
65472;DHT22;52068;50.710;14.492;2022-11-13T06:06:51;20.89;47.42
65472;DHT22;52068;50.710;14.492;2022-11-13T06:09:16;20.88;47.45
65472;DHT22;52068;50.710;14.492;2022-11-13T06:11:41;20.88;47.40
65472;DHT22;52068;50.710;14.492;2022-11-13T06:14:07;20.86;47.39
65472;DHT22;52068;50.710;14.492;2022-11-13T06:16:33;20.88;47.47
65472;DHT22;52068;50.710;14.492;2022-11-13T06:19:00;20.86;47.49
65472;DHT22;52068;50.710;14.492;2022-11-13T06:21:27;20.85;47.43
65472;DHT22;52068;50.710;14.492;2022-11-13T06:23:52;20.83;47.43
65472;DHT22;52068;50.710;14.492;2022-11-13T06:26:19;20.83;47.29
65472;DHT22;52068;50.710;14.492;2022-11-13T06:28:45;20.86;47.41
65472;DHT22;52068;50.710;14.492;2022-11-13T06:31:11;20.82;47.43
65472;DHT22;52068;50.710;14.492;2022-11-13T06:33:37;20.85;47.64
65472;DHT22;52068;50.710;14.492;2022-11-13T06:36:03;20.82;47.45
65472;DHT22;52068;50.710;14.492;2022-11-13T06:38:29;20.82;47.40
65472;DHT22;52068;50.710;14.492;2022-11-13T06:40:56;20.82;47.54
65472;DHT22;52068;50.710;14.492;2022-11-13T06:43:21;20.81;47.53
65472;DHT22;52068;50.710;14.492;2022-11-13T06:45:46;20.82;47.54
65472;DHT22;52068;50.710;14.492;2022-11-13T06:48:12;20.83;47.49
65472;DHT22;52068;50.710;14.492;2022-11-13T06:50:37;20.81;47.57
65472;DHT22;52068;50.710;14.492;2022-11-13T06:53:02;20.82;47.53
65472;DHT22;52068;50.710;14.492;2022-11-13T06:55:28;20.83;47.79
65472;DHT22;52068;50.710;14.492;2022-11-13T06:57:53;20.85;47.54
65472;DHT22;52068;50.710;14.492;2022-11-13T07:00:18;20.85;47.59
65472;DHT22;52068;50.710;14.492;2022-11-13T07:02:44;20.86;47.39
65472;DHT22;52068;50.710;14.492;2022-11-13T07:05:12;20.86;47.42
65472;DHT22;52068;50.710;14.492;2022-11-13T07:07:37;20.86;47.41
65472;DHT22;52068;50.710;14.492;2022-11-13T07:10:02;20.82;47.43
65472;DHT22;52068;50.710;14.492;2022-11-13T07:12:28;20.81;47.62
65472;DHT22;52068;50.710;14.492;2022-11-13T07:14:53;20.83;47.42
65472;DHT22;52068;50.710;14.492;2022-11-13T07:17:18;20.83;47.48
65472;DHT22;52068;50.710;14.492;2022-11-13T07:19:43;20.82;47.32
65472;DHT22;52068;50.710;14.492;2022-11-13T07:22:09;20.82;47.45
65472;DHT22;52068;50.710;14.492;2022-11-13T07:24:34;20.81;47.33
65472;DHT22;52068;50.710;14.492;2022-11-13T07:26:59;20.79;47.50
65472;DHT22;52068;50.710;14.492;2022-11-13T07:29:24;20.78;47.35
65472;DHT22;52068;50.710;14.492;2022-11-13T07:31:50;20.79;47.35
65472;DHT22;52068;50.710;14.492;2022-11-13T07:34:15;20.79;47.37
65472;DHT22;52068;50.710;14.492;2022-11-13T07:36:40;20.81;47.31
65472;DHT22;52068;50.710;14.492;2022-11-13T07:39:05;20.76;47.38
65472;DHT22;52068;50.710;14.492;2022-11-13T07:41:31;20.75;47.40
65472;DHT22;52068;50.710;14.492;2022-11-13T07:43:56;20.76;47.37
65472;DHT22;52068;50.710;14.492;2022-11-13T07:46:21;20.73;47.31
65472;DHT22;52068;50.710;14.492;2022-11-13T07:48:46;20.73;47.36
65472;DHT22;52068;50.710;14.492;2022-11-13T07:51:12;20.72;47.63
65472;DHT22;52068;50.710;14.492;2022-11-13T07:53:37;20.73;47.60
65472;DHT22;52068;50.710;14.492;2022-11-13T07:56:03;20.73;47.56
65472;DHT22;52068;50.710;14.492;2022-11-13T07:58:29;20.73;47.45
65472;DHT22;52068;50.710;14.492;2022-11-13T08:00:59;20.73;47.53
65472;DHT22;52068;50.710;14.492;2022-11-13T08:03:24;20.73;47.60
65472;DHT22;52068;50.710;14.492;2022-11-13T08:05:49;20.71;47.57
65472;DHT22;52068;50.710;14.492;2022-11-13T08:08:15;20.68;47.58
65472;DHT22;52068;50.710;14.492;2022-11-13T08:10:40;20.71;47.78
65472;DHT22;52068;50.710;14.492;2022-11-13T08:13:06;20.68;47.77
65472;DHT22;52068;50.710;14.492;2022-11-13T08:15:32;20.69;47.78
65472;DHT22;52068;50.710;14.492;2022-11-13T08:17:58;20.68;47.74
65472;DHT22;52068;50.710;14.492;2022-11-13T08:20:24;20.68;47.70
65472;DHT22;52068;50.710;14.492;2022-11-13T08:22:50;20.68;47.70
65472;DHT22;52068;50.710;14.492;2022-11-13T08:25:16;20.67;47.77
65472;DHT22;52068;50.710;14.492;2022-11-13T08:27:41;20.67;47.69
65472;DHT22;52068;50.710;14.492;2022-11-13T08:30:07;20.65;47.74
65472;DHT22;52068;50.710;14.492;2022-11-13T08:32:32;20.64;47.81
65472;DHT22;52068;50.710;14.492;2022-11-13T08:34:57;20.65;47.83
65472;DHT22;52068;50.710;14.492;2022-11-13T08:37:23;20.64;47.84
65472;DHT22;52068;50.710;14.492;2022-11-13T08:39:48;20.64;47.86
65472;DHT22;52068;50.710;14.492;2022-11-13T08:42:13;20.64;47.83
65472;DHT22;52068;50.710;14.492;2022-11-13T08:44:38;20.62;47.89
65472;DHT22;52068;50.710;14.492;2022-11-13T08:47:03;20.65;47.95
65472;DHT22;52068;50.710;14.492;2022-11-13T08:49:29;20.67;47.99
65472;DHT22;52068;50.710;14.492;2022-11-13T08:51:54;20.67;48.01
65472;DHT22;52068;50.710;14.492;2022-11-13T08:54:19;20.68;47.83
65472;DHT22;52068;50.710;14.492;2022-11-13T08:56:48;20.68;47.84
65472;DHT22;52068;50.710;14.492;2022-11-13T08:59:13;20.65;47.82
65472;DHT22;52068;50.710;14.492;2022-11-13T09:01:39;20.67;47.79
65472;DHT22;52068;50.710;14.492;2022-11-13T09:04:04;20.64;47.82
65472;DHT22;52068;50.710;14.492;2022-11-13T09:06:29;20.64;47.99
65472;DHT22;52068;50.710;14.492;2022-11-13T09:08:54;20.68;47.92
65472;DHT22;52068;50.710;14.492;2022-11-13T09:11:20;20.67;47.84
65472;DHT22;52068;50.710;14.492;2022-11-13T09:13:46;20.64;47.89
65472;DHT22;52068;50.710;14.492;2022-11-13T09:16:11;20.64;47.81
65472;DHT22;52068;50.710;14.492;2022-11-13T09:18:37;20.64;48.03
65472;DHT22;52068;50.710;14.492;2022-11-13T09:21:02;20.61;47.81
65472;DHT22;52068;50.710;14.492;2022-11-13T09:23:28;20.61;48.03
65472;DHT22;52068;50.710;14.492;2022-11-13T09:25:53;20.61;47.89
65472;DHT22;52068;50.710;14.492;2022-11-13T09:28:19;20.59;47.90
65472;DHT22;52068;50.710;14.492;2022-11-13T09:30:44;20.58;47.91
65472;DHT22;52068;50.710;14.492;2022-11-13T09:33:09;20.59;48.06
65472;DHT22;52068;50.710;14.492;2022-11-13T09:35:34;20.58;47.94
65472;DHT22;52068;50.710;14.492;2022-11-13T09:38:01;20.56;47.92
65472;DHT22;52068;50.710;14.492;2022-11-13T09:40:50;20.58;47.94
65472;DHT22;52068;50.710;14.492;2022-11-13T09:43:16;20.56;48.01
65472;DHT22;52068;50.710;14.492;2022-11-13T09:45:43;20.56;48.06
65472;DHT22;52068;50.710;14.492;2022-11-13T09:50:40;20.58;48.22
65472;DHT22;52068;50.710;14.492;2022-11-13T09:53:06;20.56;48.43
65472;DHT22;52068;50.710;14.492;2022-11-13T09:55:32;20.58;48.19
65472;DHT22;52068;50.710;14.492;2022-11-13T10:00:53;20.62;48.19
65472;DHT22;52068;50.710;14.492;2022-11-13T10:03:29;20.65;47.99
65472;DHT22;52068;50.710;14.492;2022-11-13T10:08:28;20.62;47.90
65472;DHT22;52068;50.710;14.492;2022-11-13T10:15:54;20.61;48.03
65472;DHT22;52068;50.710;14.492;2022-11-13T10:18:26;20.61;48.04
65472;DHT22;52068;50.710;14.492;2022-11-13T10:20:54;20.61;47.99
65472;DHT22;52068;50.710;14.492;2022-11-13T10:23:31;20.58;47.96
65472;DHT22;52068;50.710;14.492;2022-11-13T10:25:59;20.59;48.11
65472;DHT22;52068;50.710;14.492;2022-11-13T10:28:26;20.58;48.24
65472;DHT22;52068;50.710;14.492;2022-11-13T10:30:51;20.59;48.18
65472;DHT22;52068;50.710;14.492;2022-11-13T10:33:17;20.62;48.05
65472;DHT22;52068;50.710;14.492;2022-11-13T10:35:52;20.59;48.11
65472;DHT22;52068;50.710;14.492;2022-11-13T10:38:22;20.64;48.03
65472;DHT22;52068;50.710;14.492;2022-11-13T10:40:48;20.61;48.05
65472;DHT22;52068;50.710;14.492;2022-11-13T10:43:15;20.62;48.08
65472;DHT22;52068;50.710;14.492;2022-11-13T10:45:41;20.61;48.13
65472;DHT22;52068;50.710;14.492;2022-11-13T10:48:25;20.62;48.23
65472;DHT22;52068;50.710;14.492;2022-11-13T10:50:51;20.61;48.19
65472;DHT22;52068;50.710;14.492;2022-11-13T10:53:17;20.64;48.27
65472;DHT22;52068;50.710;14.492;2022-11-13T10:55:42;20.64;48.19
65472;DHT22;52068;50.710;14.492;2022-11-13T10:58:17;20.65;48.26
65472;DHT22;52068;50.710;14.492;2022-11-13T11:00:44;20.64;48.12
65472;DHT22;52068;50.710;14.492;2022-11-13T11:03:19;20.64;48.27
65472;DHT22;52068;50.710;14.492;2022-11-13T11:06:18;20.65;48.31
65472;DHT22;52068;50.710;14.492;2022-11-13T11:08:37;20.67;48.40
65472;DHT22;52068;50.710;14.492;2022-11-13T11:11:06;20.67;48.38
65472;DHT22;52068;50.710;14.492;2022-11-13T11:13:50;20.71;48.28
65472;DHT22;52068;50.710;14.492;2022-11-13T11:16:21;20.69;48.29
65472;DHT22;52068;50.710;14.492;2022-11-13T11:18:51;20.69;48.33
65472;DHT22;52068;50.710;14.492;2022-11-13T11:21:20;20.72;48.29
65472;DHT22;52068;50.710;14.492;2022-11-13T11:24:19;20.72;48.33
65472;DHT22;52068;50.710;14.492;2022-11-13T11:26:48;20.76;48.30
65472;DHT22;52068;50.710;14.492;2022-11-13T11:29:20;20.76;48.27
65472;DHT22;52068;50.710;14.492;2022-11-13T11:34:18;20.81;48.34
65472;DHT22;52068;50.710;14.492;2022-11-13T11:44:54;20.81;48.37
65472;DHT22;52068;50.710;14.492;2022-11-13T11:47:22;20.85;48.35
65472;DHT22;52068;50.710;14.492;2022-11-13T11:49:47;20.85;48.38
65472;DHT22;52068;50.710;14.492;2022-11-13T11:52:23;20.89;48.39
65472;DHT22;52068;50.710;14.492;2022-11-13T12:00:31;20.88;48.29
65472;DHT22;52068;50.710;14.492;2022-11-13T12:07:56;20.86;48.18
65472;DHT22;52068;50.710;14.492;2022-11-13T12:20:37;20.86;47.88
65472;DHT22;52068;50.710;14.492;2022-11-13T12:25:51;20.86;47.94
65472;DHT22;52068;50.710;14.492;2022-11-13T12:28:23;20.83;47.96
65472;DHT22;52068;50.710;14.492;2022-11-13T12:31:11;20.85;47.90
65472;DHT22;52068;50.710;14.492;2022-11-13T12:36:03;20.82;47.73
65472;DHT22;52068;50.710;14.492;2022-11-13T12:41:08;20.82;47.63
65472;DHT22;52068;50.710;14.492;2022-11-13T12:46:09;20.81;47.39
65472;DHT22;52068;50.710;14.492;2022-11-13T12:48:41;20.79;47.25
65472;DHT22;52068;50.710;14.492;2022-11-13T12:51:09;20.78;47.45
65472;DHT22;52068;50.710;14.492;2022-11-13T12:54:10;20.81;47.38
65472;DHT22;52068;50.710;14.492;2022-11-13T12:56:29;20.81;47.37
65472;DHT22;52068;50.710;14.492;2022-11-13T13:01:21;20.81;47.46
65472;DHT22;52068;50.710;14.492;2022-11-13T13:11:48;20.78;47.91
65472;DHT22;52068;50.710;14.492;2022-11-13T13:17:16;20.79;48.08
65472;DHT22;52068;50.710;14.492;2022-11-13T13:19:41;20.79;48.36
65472;DHT22;52068;50.710;14.492;2022-11-13T13:22:10;20.81;48.43
65472;DHT22;52068;50.710;14.492;2022-11-13T13:24:37;20.81;48.42
65472;DHT22;52068;50.710;14.492;2022-11-13T13:27:19;21.22;48.07
65472;DHT22;52068;50.710;14.492;2022-11-13T13:29:45;23.08;43.77
65472;DHT22;52068;50.710;14.492;2022-11-13T13:37:07;28.07;34.18
65472;DHT22;52068;50.710;14.492;2022-11-13T13:47:28;28.82;32.68
65472;DHT22;52068;50.710;14.492;2022-11-13T13:49:55;28.48;33.23
65472;DHT22;52068;50.710;14.492;2022-11-13T13:52:28;28.01;34.06
65472;DHT22;52068;50.710;14.492;2022-11-13T13:54:54;27.58;34.84
65472;DHT22;52068;50.710;14.492;2022-11-13T13:57:19;27.22;35.49
65472;DHT22;52068;50.710;14.492;2022-11-13T13:59:45;26.82;36.07
65472;DHT22;52068;50.710;14.492;2022-11-13T14:02:14;26.52;36.70
65472;DHT22;52068;50.710;14.492;2022-11-13T14:04:47;26.24;37.18
65472;DHT22;52068;50.710;14.492;2022-11-13T14:09:46;25.79;38.09
65472;DHT22;52068;50.710;14.492;2022-11-13T14:12:19;25.53;38.40
65472;DHT22;52068;50.710;14.492;2022-11-13T14:14:45;25.31;38.78
65472;DHT22;52068;50.710;14.492;2022-11-13T14:17:10;25.05;39.35
65472;DHT22;52068;50.710;14.492;2022-11-13T14:19:36;24.84;39.86
65472;DHT22;52068;50.710;14.492;2022-11-13T14:22:02;24.63;40.48
65472;DHT22;52068;50.710;14.492;2022-11-13T14:24:30;24.41;40.79
65472;DHT22;52068;50.710;14.492;2022-11-13T14:26:58;24.19;41.27
65472;DHT22;52068;50.710;14.492;2022-11-13T14:29:31;24.06;41.70
65472;DHT22;52068;50.710;14.492;2022-11-13T14:32:05;23.90;42.02
65472;DHT22;52068;50.710;14.492;2022-11-13T14:34:34;23.78;42.32
65472;DHT22;52068;50.710;14.492;2022-11-13T14:37:43;23.69;42.47
65472;DHT22;52068;50.710;14.492;2022-11-13T14:39:49;23.59;42.73
65472;DHT22;52068;50.710;14.492;2022-11-13T14:42:16;23.47;43.10
65472;DHT22;52068;50.710;14.492;2022-11-13T14:44:42;23.35;43.71
65472;DHT22;52068;50.710;14.492;2022-11-13T14:47:21;23.25;43.78
65472;DHT22;52068;50.710;14.492;2022-11-13T14:49:46;23.17;43.96
65472;DHT22;52068;50.710;14.492;2022-11-13T14:52:53;23.08;44.11
65472;DHT22;52068;50.710;14.492;2022-11-13T14:55:04;23.04;44.27
65472;DHT22;52068;50.710;14.492;2022-11-13T14:57:30;23.03;44.28
65472;DHT22;52068;50.710;14.492;2022-11-13T14:59:55;22.96;44.40
65472;DHT22;52068;50.710;14.492;2022-11-13T15:02:20;22.99;44.56
65472;DHT22;52068;50.710;14.492;2022-11-13T15:04:45;22.96;44.63
65472;DHT22;52068;50.710;14.492;2022-11-13T15:07:18;22.93;44.68
65472;DHT22;52068;50.710;14.492;2022-11-13T15:09:44;22.94;44.65
65472;DHT22;52068;50.710;14.492;2022-11-13T15:12:10;22.93;44.83
65472;DHT22;52068;50.710;14.492;2022-11-13T15:14:35;22.92;44.72
65472;DHT22;52068;50.710;14.492;2022-11-13T15:17:02;22.90;44.90
65472;DHT22;52068;50.710;14.492;2022-11-13T15:19:31;22.92;44.99
65472;DHT22;52068;50.710;14.492;2022-11-13T15:21:58;22.87;44.93
65472;DHT22;52068;50.710;14.492;2022-11-13T15:24:23;22.89;45.06
65472;DHT22;52068;50.710;14.492;2022-11-13T15:26:49;22.92;45.11
65472;DHT22;52068;50.710;14.492;2022-11-13T15:29:14;22.90;45.19
65472;DHT22;52068;50.710;14.492;2022-11-13T15:31:40;22.89;45.24
65472;DHT22;52068;50.710;14.492;2022-11-13T15:34:07;22.90;45.34
65472;DHT22;52068;50.710;14.492;2022-11-13T15:36:33;22.90;45.26
65472;DHT22;52068;50.710;14.492;2022-11-13T15:38:59;22.90;45.41
65472;DHT22;52068;50.710;14.492;2022-11-13T15:41:26;22.90;45.33
65472;DHT22;52068;50.710;14.492;2022-11-13T15:43:52;22.90;45.33
65472;DHT22;52068;50.710;14.492;2022-11-13T15:46:18;22.90;45.37
65472;DHT22;52068;50.710;14.492;2022-11-13T15:48:44;22.93;45.53
65472;DHT22;52068;50.710;14.492;2022-11-13T15:51:19;22.93;45.39
65472;DHT22;52068;50.710;14.492;2022-11-13T15:53:46;22.97;45.41
65472;DHT22;52068;50.710;14.492;2022-11-13T15:56:13;23.00;45.37
65472;DHT22;52068;50.710;14.492;2022-11-13T15:58:38;23.02;45.44
65472;DHT22;52068;50.710;14.492;2022-11-13T16:01:03;23.02;45.25
65472;DHT22;52068;50.710;14.492;2022-11-13T16:03:28;22.99;45.17
65472;DHT22;52068;50.710;14.492;2022-11-13T16:05:57;22.97;45.17
65472;DHT22;52068;50.710;14.492;2022-11-13T16:08:22;22.94;45.22
65472;DHT22;52068;50.710;14.492;2022-11-13T16:10:48;22.87;46.01
65472;DHT22;52068;50.710;14.492;2022-11-13T16:13:13;22.86;46.23
65472;DHT22;52068;50.710;14.492;2022-11-13T16:15:38;22.89;46.18
65472;DHT22;52068;50.710;14.492;2022-11-13T16:18:04;22.90;46.06
65472;DHT22;52068;50.710;14.492;2022-11-13T16:20:32;22.93;45.95
65472;DHT22;52068;50.710;14.492;2022-11-13T16:22:58;22.94;45.84
65472;DHT22;52068;50.710;14.492;2022-11-13T16:25:23;22.96;45.50
65472;DHT22;52068;50.710;14.492;2022-11-13T16:27:49;22.97;45.15
65472;DHT22;52068;50.710;14.492;2022-11-13T16:30:20;23.02;44.72
65472;DHT22;52068;50.710;14.492;2022-11-13T16:32:45;23.03;44.54
65472;DHT22;52068;50.710;14.492;2022-11-13T16:35:12;23.06;44.50
65472;DHT22;52068;50.710;14.492;2022-11-13T16:37:37;23.04;44.34
65472;DHT22;52068;50.710;14.492;2022-11-13T16:40:03;23.04;44.22